sensor_id;sensor_type;location;lat;lon;timestamp;temperature;humidity
21493;DHT22;10908;50.690;4.400;2022-12-20T15:56:01;10.20;93.90
21493;DHT22;10908;50.690;4.400;2022-12-20T15:58:27;10.30;93.90
21493;DHT22;10908;50.690;4.400;2022-12-20T16:00:54;10.30;93.90
21493;DHT22;10908;50.690;4.400;2022-12-20T16:03:30;10.30;93.80
21493;DHT22;10908;50.690;4.400;2022-12-20T16:05:56;10.30;93.80
21493;DHT22;10908;50.690;4.400;2022-12-20T16:08:22;10.30;93.70
21493;DHT22;10908;50.690;4.400;2022-12-20T16:10:50;10.30;93.70
21493;DHT22;10908;50.690;4.400;2022-12-20T16:13:21;10.30;93.80
21493;DHT22;10908;50.690;4.400;2022-12-20T16:15:47;10.30;93.80
21493;DHT22;10908;50.690;4.400;2022-12-20T16:18:12;10.30;93.90
21493;DHT22;10908;50.690;4.400;2022-12-20T16:20:38;10.20;93.90
21493;DHT22;10908;50.690;4.400;2022-12-20T16:23:05;10.20;93.90
21493;DHT22;10908;50.690;4.400;2022-12-20T16:25:38;10.20;93.90
21493;DHT22;10908;50.690;4.400;2022-12-20T16:28:04;10.30;94.00
21493;DHT22;10908;50.690;4.400;2022-12-20T16:30:30;10.20;93.90
21493;DHT22;10908;50.690;4.400;2022-12-20T16:32:55;10.30;93.90
21493;DHT22;10908;50.690;4.400;2022-12-20T16:37:52;10.30;93.90
21493;DHT22;10908;50.690;4.400;2022-12-20T16:40:23;10.30;93.90
21493;DHT22;10908;50.690;4.400;2022-12-20T16:42:49;10.20;93.90
21493;DHT22;10908;50.690;4.400;2022-12-20T16:45:38;10.20;93.90
21493;DHT22;10908;50.690;4.400;2022-12-20T16:48:06;10.10;94.00
21493;DHT22;10908;50.690;4.400;2022-12-20T16:50:32;10.20;93.90
21493;DHT22;10908;50.690;4.400;2022-12-20T16:52:58;10.20;93.90
21493;DHT22;10908;50.690;4.400;2022-12-20T16:55:25;10.20;93.90
21493;DHT22;10908;50.690;4.400;2022-12-20T16:57:52;10.20;93.90
21493;DHT22;10908;50.690;4.400;2022-12-20T17:00:25;10.20;93.90
21493;DHT22;10908;50.690;4.400;2022-12-20T17:02:51;10.20;94.00
21493;DHT22;10908;50.690;4.400;2022-12-20T17:05:29;10.20;94.00
21493;DHT22;10908;50.690;4.400;2022-12-20T17:07:55;10.20;94.00
21493;DHT22;10908;50.690;4.400;2022-12-20T17:10:22;10.10;94.10
21493;DHT22;10908;50.690;4.400;2022-12-20T17:12:48;10.20;94.00
21493;DHT22;10908;50.690;4.400;2022-12-20T17:15:34;10.20;94.10
21493;DHT22;10908;50.690;4.400;2022-12-20T17:18:01;10.20;94.00
21493;DHT22;10908;50.690;4.400;2022-12-20T17:20:26;10.20;94.10
21493;DHT22;10908;50.690;4.400;2022-12-20T17:22:54;10.20;94.10
21493;DHT22;10908;50.690;4.400;2022-12-20T17:25:33;10.30;94.10
21493;DHT22;10908;50.690;4.400;2022-12-20T17:27:59;10.30;94.20
21493;DHT22;10908;50.690;4.400;2022-12-20T17:30:25;10.20;94.20
21493;DHT22;10908;50.690;4.400;2022-12-20T17:32:52;10.30;94.20
21493;DHT22;10908;50.690;4.400;2022-12-20T17:35:21;10.30;94.20
21493;DHT22;10908;50.690;4.400;2022-12-20T17:37:47;10.30;94.30
21493;DHT22;10908;50.690;4.400;2022-12-20T17:40:14;10.30;94.30
21493;DHT22;10908;50.690;4.400;2022-12-20T17:42:41;10.30;94.30
21493;DHT22;10908;50.690;4.400;2022-12-20T17:47:44;10.30;94.30
21493;DHT22;10908;50.690;4.400;2022-12-20T17:50:10;10.20;94.30
21493;DHT22;10908;50.690;4.400;2022-12-20T17:52:35;10.20;94.30
21493;DHT22;10908;50.690;4.400;2022-12-20T17:55:02;10.20;94.40
21493;DHT22;10908;50.690;4.400;2022-12-20T17:57:27;10.20;94.40
21493;DHT22;10908;50.690;4.400;2022-12-20T17:59:53;10.20;94.40
21493;DHT22;10908;50.690;4.400;2022-12-20T18:02:23;10.20;94.40
21493;DHT22;10908;50.690;4.400;2022-12-20T18:04:50;10.30;94.40
21493;DHT22;10908;50.690;4.400;2022-12-20T18:07:15;10.30;94.40
21493;DHT22;10908;50.690;4.400;2022-12-20T18:09:41;10.30;94.30
21493;DHT22;10908;50.690;4.400;2022-12-20T18:12:09;10.30;94.30
21493;DHT22;10908;50.690;4.400;2022-12-20T18:14:34;10.30;94.30
21493;DHT22;10908;50.690;4.400;2022-12-20T18:17:00;10.30;94.30
21493;DHT22;10908;50.690;4.400;2022-12-20T18:19:26;10.20;94.30
21493;DHT22;10908;50.690;4.400;2022-12-20T18:21:51;10.30;94.30
21493;DHT22;10908;50.690;4.400;2022-12-20T18:24:17;10.30;94.30
21493;DHT22;10908;50.690;4.400;2022-12-20T18:26:45;10.30;94.30
21493;DHT22;10908;50.690;4.400;2022-12-20T18:29:10;10.30;94.30
21493;DHT22;10908;50.690;4.400;2022-12-20T18:31:37;10.30;94.20
21493;DHT22;10908;50.690;4.400;2022-12-20T18:34:03;10.40;94.20
21493;DHT22;10908;50.690;4.400;2022-12-20T18:36:31;10.30;94.20
21493;DHT22;10908;50.690;4.400;2022-12-20T18:39:02;10.30;94.20
21493;DHT22;10908;50.690;4.400;2022-12-20T18:41:29;10.30;94.10
21493;DHT22;10908;50.690;4.400;2022-12-20T18:44:00;10.30;94.10
21493;DHT22;10908;50.690;4.400;2022-12-20T18:46:27;10.30;94.20
21493;DHT22;10908;50.690;4.400;2022-12-20T18:48:54;10.30;94.10
21493;DHT22;10908;50.690;4.400;2022-12-20T18:51:26;10.30;94.10
21493;DHT22;10908;50.690;4.400;2022-12-20T18:53:54;10.40;94.10
21493;DHT22;10908;50.690;4.400;2022-12-20T18:56:24;10.40;94.10
21493;DHT22;10908;50.690;4.400;2022-12-20T18:58:51;10.40;94.00
21493;DHT22;10908;50.690;4.400;2022-12-20T19:01:20;10.40;94.00
21493;DHT22;10908;50.690;4.400;2022-12-20T19:03:46;10.30;94.00
21493;DHT22;10908;50.690;4.400;2022-12-20T19:06:12;10.30;94.00
21493;DHT22;10908;50.690;4.400;2022-12-20T19:08:39;10.30;94.00
21493;DHT22;10908;50.690;4.400;2022-12-20T19:11:09;10.30;94.10
21493;DHT22;10908;50.690;4.400;2022-12-20T19:13:36;10.30;94.10
21493;DHT22;10908;50.690;4.400;2022-12-20T19:16:13;10.40;94.10
21493;DHT22;10908;50.690;4.400;2022-12-20T19:18:40;10.40;94.00
21493;DHT22;10908;50.690;4.400;2022-12-20T19:23:41;10.40;94.00
21493;DHT22;10908;50.690;4.400;2022-12-20T19:26:09;10.40;94.00
21493;DHT22;10908;50.690;4.400;2022-12-20T19:28:36;10.50;94.00
21493;DHT22;10908;50.690;4.400;2022-12-20T19:31:13;10.40;93.90
21493;DHT22;10908;50.690;4.400;2022-12-20T19:33:41;10.30;93.90
21493;DHT22;10908;50.690;4.400;2022-12-20T19:36:11;10.40;93.90
21493;DHT22;10908;50.690;4.400;2022-12-20T19:38:45;10.40;93.90
21493;DHT22;10908;50.690;4.400;2022-12-20T19:41:12;10.50;93.90
21493;DHT22;10908;50.690;4.400;2022-12-20T19:43:38;10.40;93.80
21493;DHT22;10908;50.690;4.400;2022-12-20T19:46:04;10.40;93.90
21493;DHT22;10908;50.690;4.400;2022-12-20T19:48:31;10.40;93.90
21493;DHT22;10908;50.690;4.400;2022-12-20T19:51:23;10.40;93.90
21493;DHT22;10908;50.690;4.400;2022-12-20T19:53:50;10.40;93.90
21493;DHT22;10908;50.690;4.400;2022-12-20T19:56:20;10.40;94.00
21493;DHT22;10908;50.690;4.400;2022-12-20T19:58:47;10.30;94.00
21493;DHT22;10908;50.690;4.400;2022-12-20T20:01:14;10.30;94.00
21493;DHT22;10908;50.690;4.400;2022-12-20T20:03:40;10.30;94.10
21493;DHT22;10908;50.690;4.400;2022-12-20T20:06:06;10.40;94.10
21493;DHT22;10908;50.690;4.400;2022-12-20T20:08:33;10.40;94.10
21493;DHT22;10908;50.690;4.400;2022-12-20T20:11:00;10.30;94.00
21493;DHT22;10908;50.690;4.400;2022-12-20T20:13:27;10.30;94.10
21493;DHT22;10908;50.690;4.400;2022-12-20T20:15:55;10.40;94.10
21493;DHT22;10908;50.690;4.400;2022-12-20T20:18:22;10.30;94.10
21493;DHT22;10908;50.690;4.400;2022-12-20T20:20:49;10.30;94.10
21493;DHT22;10908;50.690;4.400;2022-12-20T20:23:15;10.40;94.20
21493;DHT22;10908;50.690;4.400;2022-12-20T20:25:52;10.30;94.20
21493;DHT22;10908;50.690;4.400;2022-12-20T20:28:18;10.30;94.20
21493;DHT22;10908;50.690;4.400;2022-12-20T20:30:46;10.30;94.20
21493;DHT22;10908;50.690;4.400;2022-12-20T20:33:13;10.30;94.20
21493;DHT22;10908;50.690;4.400;2022-12-20T20:35:38;10.30;94.20
21493;DHT22;10908;50.690;4.400;2022-12-20T20:38:05;10.30;94.30
21493;DHT22;10908;50.690;4.400;2022-12-20T20:40:31;10.30;94.20
21493;DHT22;10908;50.690;4.400;2022-12-20T20:42:58;10.30;94.30
21493;DHT22;10908;50.690;4.400;2022-12-20T20:45:24;10.30;94.30
21493;DHT22;10908;50.690;4.400;2022-12-20T20:47:50;10.30;94.20
21493;DHT22;10908;50.690;4.400;2022-12-20T20:50:17;10.20;94.30
21493;DHT22;10908;50.690;4.400;2022-12-20T20:52:44;10.30;94.30
21493;DHT22;10908;50.690;4.400;2022-12-20T20:55:10;10.30;94.30
21493;DHT22;10908;50.690;4.400;2022-12-20T20:57:35;10.30;94.30
21493;DHT22;10908;50.690;4.400;2022-12-20T21:00:01;10.30;94.30
21493;DHT22;10908;50.690;4.400;2022-12-20T21:02:28;10.30;94.30
21493;DHT22;10908;50.690;4.400;2022-12-20T21:04:54;10.30;94.30
21493;DHT22;10908;50.690;4.400;2022-12-20T21:07:19;10.30;94.30
21493;DHT22;10908;50.690;4.400;2022-12-20T21:09:45;10.30;94.30
21493;DHT22;10908;50.690;4.400;2022-12-20T21:12:11;10.30;94.30
21493;DHT22;10908;50.690;4.400;2022-12-20T21:14:36;10.30;94.30
21493;DHT22;10908;50.690;4.400;2022-12-20T21:17:02;10.30;94.30
21493;DHT22;10908;50.690;4.400;2022-12-20T21:19:28;10.30;94.30
21493;DHT22;10908;50.690;4.400;2022-12-20T21:21:53;10.30;94.30
21493;DHT22;10908;50.690;4.400;2022-12-20T21:24:19;10.30;94.30
21493;DHT22;10908;50.690;4.400;2022-12-20T21:26:46;10.30;94.30
21493;DHT22;10908;50.690;4.400;2022-12-20T21:29:12;10.30;94.20
21493;DHT22;10908;50.690;4.400;2022-12-20T21:31:38;10.30;94.20
21493;DHT22;10908;50.690;4.400;2022-12-20T21:34:03;10.30;94.20
21493;DHT22;10908;50.690;4.400;2022-12-20T21:36:29;10.30;94.20
21493;DHT22;10908;50.690;4.400;2022-12-20T21:38:56;10.30;94.20
21493;DHT22;10908;50.690;4.400;2022-12-20T21:41:24;10.30;94.20
21493;DHT22;10908;50.690;4.400;2022-12-20T21:43:53;10.30;94.20
21493;DHT22;10908;50.690;4.400;2022-12-20T21:46:19;10.30;94.20
21493;DHT22;10908;50.690;4.400;2022-12-20T21:48:45;10.30;94.30
21493;DHT22;10908;50.690;4.400;2022-12-20T21:51:14;10.20;94.20
21493;DHT22;10908;50.690;4.400;2022-12-20T21:53:54;10.30;94.20
21493;DHT22;10908;50.690;4.400;2022-12-20T21:56:21;10.30;94.20
21493;DHT22;10908;50.690;4.400;2022-12-20T21:58:49;10.30;94.20
21493;DHT22;10908;50.690;4.400;2022-12-20T22:01:21;10.30;94.20
21493;DHT22;10908;50.690;4.400;2022-12-20T22:03:58;10.30;94.20
21493;DHT22;10908;50.690;4.400;2022-12-20T22:06:23;10.30;94.20
21493;DHT22;10908;50.690;4.400;2022-12-20T22:08:50;10.20;94.20
21493;DHT22;10908;50.690;4.400;2022-12-20T22:11:17;10.30;94.20
21493;DHT22;10908;50.690;4.400;2022-12-20T22:13:43;10.30;94.20
21493;DHT22;10908;50.690;4.400;2022-12-20T22:16:12;10.20;94.20
21493;DHT22;10908;50.690;4.400;2022-12-20T22:18:38;10.30;94.20
21493;DHT22;10908;50.690;4.400;2022-12-20T22:21:06;10.30;94.20
21493;DHT22;10908;50.690;4.400;2022-12-20T22:23:32;10.30;94.20
21493;DHT22;10908;50.690;4.400;2022-12-20T22:26:01;10.20;94.20
21493;DHT22;10908;50.690;4.400;2022-12-20T22:28:27;10.20;94.30
21493;DHT22;10908;50.690;4.400;2022-12-20T22:30:53;10.20;94.30
21493;DHT22;10908;50.690;4.400;2022-12-20T22:33:18;10.30;94.20
21493;DHT22;10908;50.690;4.400;2022-12-20T22:35:44;10.30;94.20
21493;DHT22;10908;50.690;4.400;2022-12-20T22:38:09;10.30;94.20
21493;DHT22;10908;50.690;4.400;2022-12-20T22:40:35;10.30;94.20
21493;DHT22;10908;50.690;4.400;2022-12-20T22:43:00;10.30;94.20
21493;DHT22;10908;50.690;4.400;2022-12-20T22:45:26;10.30;94.20
21493;DHT22;10908;50.690;4.400;2022-12-20T22:47:52;10.20;94.20
21493;DHT22;10908;50.690;4.400;2022-12-20T22:50:17;10.20;94.30
21493;DHT22;10908;50.690;4.400;2022-12-20T22:52:43;10.20;94.30
21493;DHT22;10908;50.690;4.400;2022-12-20T22:55:09;10.30;94.30
21493;DHT22;10908;50.690;4.400;2022-12-20T22:57:34;10.30;94.30
21493;DHT22;10908;50.690;4.400;2022-12-20T23:00:00;10.20;94.30
21493;DHT22;10908;50.690;4.400;2022-12-20T23:02:26;10.20;94.30
21493;DHT22;10908;50.690;4.400;2022-12-20T23:04:52;10.20;94.40
21493;DHT22;10908;50.690;4.400;2022-12-20T23:07:19;10.20;94.30
21493;DHT22;10908;50.690;4.400;2022-12-20T23:09:44;10.20;94.40
21493;DHT22;10908;50.690;4.400;2022-12-20T23:12:10;10.20;94.40
21493;DHT22;10908;50.690;4.400;2022-12-20T23:14:54;10.20;94.50
21493;DHT22;10908;50.690;4.400;2022-12-20T23:17:38;10.20;94.50
21493;DHT22;10908;50.690;4.400;2022-12-20T23:20:04;10.10;94.60
21493;DHT22;10908;50.690;4.400;2022-12-20T23:22:49;10.10;94.60
21493;DHT22;10908;50.690;4.400;2022-12-20T23:25:17;10.20;94.50
21493;DHT22;10908;50.690;4.400;2022-12-20T23:27:44;10.20;94.50
21493;DHT22;10908;50.690;4.400;2022-12-20T23:30:13;10.20;94.60
21493;DHT22;10908;50.690;4.400;2022-12-20T23:32:39;10.10;94.50
21493;DHT22;10908;50.690;4.400;2022-12-20T23:35:09;10.20;94.60
21493;DHT22;10908;50.690;4.400;2022-12-20T23:37:36;10.20;94.60
21493;DHT22;10908;50.690;4.400;2022-12-20T23:40:03;10.10;94.60
21493;DHT22;10908;50.690;4.400;2022-12-20T23:42:29;10.10;94.70
21493;DHT22;10908;50.690;4.400;2022-12-20T23:44:54;10.10;94.70
21493;DHT22;10908;50.690;4.400;2022-12-20T23:47:20;10.00;94.70
21493;DHT22;10908;50.690;4.400;2022-12-20T23:49:46;10.00;94.70
21493;DHT22;10908;50.690;4.400;2022-12-20T23:52:11;10.00;94.70
21493;DHT22;10908;50.690;4.400;2022-12-20T23:54:37;10.00;94.70
21493;DHT22;10908;50.690;4.400;2022-12-20T23:57:03;10.00;94.80
21493;DHT22;10908;50.690;4.400;2022-12-20T23:59:28;10.00;94.80
